createdAt,value
2018-02-05T00:01:09.414Z,3.00
2018-02-05T00:03:37.722Z,3.10
2018-02-05T00:06:05.277Z,3.10
2018-02-05T00:08:35.425Z,2.80
2018-02-05T00:11:03.054Z,3.30
2018-02-05T00:13:30.570Z,2.90
2018-02-05T00:15:58.158Z,3.37
2018-02-05T00:18:25.708Z,4.10
2018-02-05T00:20:53.242Z,3.47
2018-02-05T00:23:21.597Z,3.07
2018-02-05T00:25:49.913Z,2.80
2018-02-05T00:28:17.447Z,2.50
2018-02-05T00:30:44.953Z,3.10
2018-02-05T00:33:12.513Z,3.00
2018-02-05T00:35:40.025Z,3.12
2018-02-05T00:38:07.537Z,2.75
2018-02-05T00:40:36.209Z,3.27
2018-02-05T00:43:03.730Z,3.47
2018-02-05T00:45:31.247Z,3.03
2018-02-05T00:47:59.581Z,3.13
2018-02-05T00:50:27.081Z,4.00
2018-02-05T00:52:54.578Z,2.97
2018-02-05T00:55:22.101Z,2.80
2018-02-05T00:57:49.609Z,2.50
2018-02-05T01:00:17.129Z,2.50
2018-02-05T01:02:44.693Z,2.83
2018-02-05T01:05:13.428Z,3.10
2018-02-05T01:07:40.958Z,3.20
2018-02-05T01:10:09.286Z,3.00
2018-02-05T01:12:36.809Z,2.93
2018-02-05T01:15:04.356Z,2.55
2018-02-05T01:17:32.662Z,2.97
2018-02-05T01:20:00.193Z,2.80
2018-02-05T01:22:28.465Z,2.87
2018-02-05T01:24:56.771Z,3.33
2018-02-05T01:27:24.326Z,2.40
2018-02-05T01:29:51.845Z,2.83
2018-02-05T01:32:19.405Z,3.30
2018-02-05T01:34:46.914Z,2.80
2018-02-05T01:37:14.421Z,2.80
2018-02-05T01:39:41.949Z,3.40
2018-02-05T01:42:09.478Z,3.00
2018-02-05T01:44:36.981Z,3.00
2018-02-05T01:47:04.517Z,2.97
2018-02-05T01:49:32.024Z,2.90
2018-02-05T01:52:00.642Z,2.80
2018-02-05T01:54:28.635Z,2.55
2018-02-05T01:56:56.148Z,2.72
2018-02-05T01:59:24.423Z,2.75
2018-02-05T02:01:53.473Z,3.00
2018-02-05T02:04:25.118Z,2.53
2018-02-05T02:06:52.641Z,2.97
2018-02-05T02:09:21.699Z,2.70
2018-02-05T02:11:49.261Z,3.20
2018-02-05T02:14:16.762Z,3.03
2018-02-05T02:16:44.295Z,3.20
2018-02-05T02:19:12.569Z,2.75
2018-02-05T02:21:40.862Z,3.10
2018-02-05T02:24:09.200Z,2.95
2018-02-05T02:26:36.726Z,3.23
2018-02-05T02:29:04.238Z,2.83
2018-02-05T02:31:31.786Z,3.22
2018-02-05T02:33:59.317Z,2.95
2018-02-05T02:36:26.869Z,2.90
2018-02-05T02:38:54.455Z,2.45
2018-02-05T02:41:21.989Z,3.20
2018-02-05T02:43:49.517Z,3.05
2018-02-05T02:46:18.359Z,2.37
2018-02-05T02:48:45.868Z,2.80
2018-02-05T02:51:14.138Z,2.90
2018-02-05T02:53:42.475Z,3.87
2018-02-05T02:56:10.029Z,2.55
2018-02-05T02:58:37.561Z,2.72
2018-02-05T03:01:05.114Z,2.93
2018-02-05T03:03:34.005Z,2.63
2018-02-05T03:06:01.522Z,2.90
2018-02-05T03:08:29.089Z,2.70
2018-02-05T03:10:56.624Z,2.80
2018-02-05T03:13:24.917Z,3.10
2018-02-05T03:15:52.450Z,2.53
2018-02-05T03:18:19.996Z,2.90
2018-02-05T03:20:47.520Z,2.97
2018-02-05T03:23:16.801Z,2.60
2018-02-05T03:25:44.325Z,2.92
2018-02-05T03:28:11.821Z,2.40
2018-02-05T03:30:39.390Z,2.75
2018-02-05T03:33:08.063Z,3.37
2018-02-05T03:35:36.341Z,2.90
2018-02-05T03:38:03.909Z,2.60
2018-02-05T03:40:32.947Z,2.40
2018-02-05T03:43:00.924Z,2.50
2018-02-05T03:45:28.480Z,3.47
2018-02-05T03:47:55.989Z,2.58
2018-02-05T03:50:27.419Z,2.67
2018-02-05T03:52:54.993Z,2.95
2018-02-05T03:55:22.526Z,2.90
2018-02-05T03:57:50.048Z,3.20
2018-02-05T04:00:17.598Z,2.53
2018-02-05T04:02:46.630Z,2.75
2018-02-05T04:05:14.157Z,2.92
2018-02-05T04:07:41.701Z,2.43
2018-02-05T04:10:09.275Z,3.00
2018-02-05T04:12:37.579Z,2.83
2018-02-05T04:15:05.182Z,2.53
2018-02-05T04:17:32.687Z,2.90
2018-02-05T04:20:00.193Z,2.60
2018-02-05T04:22:27.726Z,2.20
2018-02-05T04:24:55.232Z,2.70
2018-02-05T04:27:22.735Z,2.60
2018-02-05T04:29:50.260Z,2.57
2018-02-05T04:32:18.550Z,2.72
2018-02-05T04:34:46.049Z,3.00
2018-02-05T04:37:13.590Z,2.60
2018-02-05T04:39:41.094Z,2.87
2018-02-05T04:42:09.395Z,2.60
2018-02-05T04:44:37.749Z,2.92
2018-02-05T04:47:05.267Z,2.25
2018-02-05T04:49:32.773Z,2.90
2018-02-05T04:52:00.330Z,3.00
2018-02-05T04:54:27.834Z,3.08
2018-02-05T04:56:55.361Z,3.03
2018-02-05T04:59:23.677Z,3.05
2018-02-05T05:01:51.191Z,2.93
2018-02-05T05:04:20.077Z,2.30
2018-02-05T05:06:47.627Z,2.27
2018-02-05T05:09:15.933Z,2.78
2018-02-05T05:11:44.198Z,2.40
2018-02-05T05:14:12.212Z,2.40
2018-02-05T05:16:39.717Z,2.78
2018-02-05T05:19:07.242Z,2.70
2018-02-05T05:21:34.794Z,2.70
2018-02-05T05:24:02.297Z,2.70
2018-02-05T05:26:29.808Z,2.03
2018-02-05T05:28:57.350Z,2.20
2018-02-05T05:31:25.610Z,2.30
2018-02-05T05:33:53.874Z,2.70
2018-02-05T05:36:21.438Z,2.62
2018-02-05T05:38:49.710Z,2.73
2018-02-05T05:41:17.625Z,2.50
2018-02-05T05:43:45.201Z,2.67
2018-02-05T05:46:12.726Z,3.27
2018-02-05T05:48:40.317Z,2.97
2018-02-05T05:51:08.625Z,2.47
2018-02-05T05:53:36.145Z,2.37
2018-02-05T05:56:03.673Z,2.20
2018-02-05T05:58:32.357Z,2.67
2018-02-05T06:01:00.642Z,2.40
2018-02-05T06:03:28.157Z,2.50
2018-02-05T06:05:55.698Z,2.60
2018-02-05T06:08:23.196Z,2.27
2018-02-05T06:10:50.733Z,2.50
2018-02-05T06:13:18.273Z,2.28
2018-02-05T06:15:45.769Z,2.70
2018-02-05T06:18:13.301Z,2.55
2018-02-05T06:20:40.837Z,2.50
2018-02-05T06:23:08.332Z,2.97
2018-02-05T06:25:35.833Z,2.50
2018-02-05T06:28:04.171Z,2.60
2018-02-05T06:30:31.705Z,2.30
2018-02-05T06:32:59.217Z,2.53
2018-02-05T06:35:27.565Z,2.58
2018-02-05T06:37:55.070Z,2.50
2018-02-05T06:40:22.570Z,2.53
2018-02-05T06:42:50.109Z,2.90
2018-02-05T06:45:17.769Z,2.80
2018-02-05T06:47:45.326Z,2.50
2018-02-05T06:50:24.957Z,2.78
2018-02-05T06:53:04.335Z,2.40
2018-02-05T06:55:40.694Z,2.70
2018-02-05T06:58:08.199Z,3.00
2018-02-05T07:00:36.475Z,2.80
2018-02-05T07:03:04.766Z,2.93
2018-02-05T07:05:32.278Z,2.93
2018-02-05T07:07:59.817Z,2.67
2018-02-05T07:10:27.382Z,2.70
2018-02-05T07:12:54.896Z,2.57
2018-02-05T07:15:23.195Z,2.83
2018-02-05T07:17:50.743Z,3.10
2018-02-05T07:20:18.274Z,2.80
2018-02-05T07:22:46.741Z,3.37
2018-02-05T07:25:14.366Z,3.45
2018-02-05T07:27:41.887Z,3.57
2018-02-05T07:30:10.201Z,2.83
2018-02-05T07:32:37.777Z,2.67
2018-02-05T07:35:05.307Z,2.90
2018-02-05T07:37:32.848Z,2.60
2018-02-05T07:40:01.181Z,2.47
2018-02-05T07:42:28.717Z,2.87
2018-02-05T07:44:56.265Z,3.00
2018-02-05T07:47:23.846Z,2.40
2018-02-05T07:49:51.396Z,3.05
2018-02-05T07:52:18.910Z,2.25
2018-02-05T07:54:46.472Z,2.67
2018-02-05T07:57:14.737Z,2.40
2018-02-05T07:59:42.257Z,2.53
2018-02-05T08:02:09.845Z,2.43
2018-02-05T08:04:37.341Z,2.30
2018-02-05T08:07:05.637Z,2.40
2018-02-05T08:09:33.174Z,2.70
2018-02-05T08:12:01.486Z,2.80
2018-02-05T08:14:29.418Z,2.87
2018-02-05T08:16:57.715Z,2.60
2018-02-05T08:19:25.237Z,2.40
2018-02-05T08:21:52.761Z,2.10
2018-02-05T08:24:20.321Z,3.03
2018-02-05T08:26:47.842Z,2.53
2018-02-05T08:29:16.146Z,2.67
2018-02-05T08:31:43.685Z,2.30
2018-02-05T08:34:11.982Z,2.70
2018-02-05T08:36:39.488Z,2.60
2018-02-05T08:39:07.077Z,3.40
2018-02-05T08:41:34.613Z,2.47
2018-02-05T08:44:02.918Z,2.85
2018-02-05T08:46:30.500Z,2.28
2018-02-05T08:48:58.536Z,3.87
2018-02-05T08:51:26.805Z,6.53
2018-02-05T08:53:55.538Z,8.13
2018-02-05T08:56:23.073Z,8.13
2018-02-05T08:58:50.617Z,10.77
2018-02-05T09:01:18.959Z,8.20
2018-02-05T09:03:46.493Z,7.15
2018-02-05T09:06:14.009Z,6.90
2018-02-05T09:08:42.313Z,7.43
2018-02-05T09:11:09.834Z,8.30
2018-02-05T09:13:37.342Z,7.90
2018-02-05T09:16:04.882Z,6.70
2018-02-05T09:18:32.394Z,6.80
2018-02-05T09:20:59.914Z,7.00
2018-02-05T09:23:27.461Z,7.35
2018-02-05T09:25:55.023Z,7.27
2018-02-05T09:28:22.525Z,7.93
2018-02-05T09:30:50.092Z,8.73
2018-02-05T09:33:17.600Z,9.23
2018-02-05T09:35:45.125Z,8.73
2018-02-05T09:38:12.673Z,6.40
2018-02-05T09:40:40.239Z,4.53
2018-02-05T09:43:07.762Z,7.15
2018-02-05T09:45:35.297Z,5.57
2018-02-05T09:48:02.833Z,4.30
2018-02-05T09:50:31.151Z,4.97
2018-02-05T09:52:58.677Z,4.30
2018-02-05T09:55:26.974Z,4.30
2018-02-05T09:57:54.553Z,10.87
2018-02-05T10:00:22.081Z,32.73
2018-02-05T10:02:50.493Z,81.23
2018-02-05T10:05:18.155Z,118.13
2018-02-05T10:07:45.685Z,139.40
2018-02-05T10:10:13.973Z,140.52
2018-02-05T10:12:41.549Z,124.83
2018-02-05T10:15:09.088Z,122.40
2018-02-05T10:17:37.365Z,101.70
2018-02-05T10:20:05.667Z,48.27
2018-02-05T10:22:33.233Z,40.57
2018-02-05T10:25:00.757Z,39.83
2018-02-05T10:27:28.317Z,46.47
2018-02-05T10:29:55.859Z,46.13
2018-02-05T10:32:24.145Z,38.53
2018-02-05T10:34:52.536Z,41.90
2018-02-05T10:37:20.057Z,37.70
2018-02-05T10:39:47.596Z,36.40
2018-02-05T10:42:15.158Z,33.33
2018-02-05T10:44:42.686Z,33.30
2018-02-05T10:47:10.198Z,40.38
2018-02-05T10:49:37.792Z,42.50
2018-02-05T10:52:05.325Z,43.67
2018-02-05T10:54:32.841Z,41.57
2018-02-05T10:57:00.431Z,43.72
2018-02-05T10:59:28.013Z,44.50
2018-02-05T11:01:56.423Z,46.28
2018-02-05T11:04:24.008Z,46.90
2018-02-05T11:06:51.582Z,31.48
2018-02-05T11:09:19.121Z,43.63
2018-02-05T11:11:46.668Z,46.17
2018-02-05T11:14:14.210Z,42.57
2018-02-05T11:16:41.724Z,43.40
2018-02-05T11:19:09.294Z,43.10
2018-02-05T11:21:36.818Z,27.83
2018-02-05T11:24:04.347Z,36.33
2018-02-05T11:26:32.710Z,32.30
2018-02-05T11:29:01.014Z,35.03
2018-02-05T11:31:28.540Z,35.20
2018-02-05T11:33:56.094Z,34.43
2018-02-05T11:36:23.613Z,33.63
2018-02-05T11:38:51.149Z,28.83
2018-02-05T11:41:18.754Z,28.60
2018-02-05T11:43:46.304Z,29.10
2018-02-05T11:46:13.849Z,28.42
2018-02-05T11:48:41.461Z,26.30
2018-02-05T11:51:09.812Z,24.27
2018-02-05T11:53:37.326Z,26.58
2018-02-05T11:56:05.866Z,23.80
2018-02-05T11:58:33.410Z,22.20
2018-02-05T12:01:00.946Z,14.85
2018-02-05T12:03:28.504Z,18.23
2018-02-05T12:05:56.057Z,19.30
2018-02-05T12:08:23.593Z,20.20
2018-02-05T12:10:51.916Z,18.83
2018-02-05T12:13:19.438Z,19.70
2018-02-05T12:15:47.726Z,18.65
2018-02-05T12:18:15.298Z,17.25
2018-02-05T12:20:42.828Z,17.50
2018-02-05T12:23:11.111Z,16.20
2018-02-05T12:25:39.460Z,16.33
2018-02-05T12:28:06.993Z,14.90
2018-02-05T12:30:34.639Z,14.17
2018-02-05T12:33:02.173Z,14.55
2018-02-05T12:35:29.685Z,13.80
2018-02-05T12:37:57.221Z,13.48
2018-02-05T12:40:24.797Z,11.65
2018-02-05T12:42:52.337Z,12.10
2018-02-05T12:45:19.850Z,11.30
2018-02-05T12:47:48.541Z,11.93
2018-02-05T12:50:16.047Z,11.40
2018-02-05T12:52:43.582Z,11.57
2018-02-05T12:55:11.138Z,10.80
2018-02-05T12:57:38.649Z,9.73
2018-02-05T13:00:17.960Z,10.63
2018-02-05T13:16:09.302Z,8.40
2018-02-05T13:18:36.841Z,7.93
2018-02-05T13:21:04.369Z,7.10
2018-02-05T13:23:31.949Z,7.57
2018-02-05T13:25:59.586Z,7.80
2018-02-05T13:28:27.131Z,6.47
2018-02-05T13:30:57.005Z,7.57
2018-02-05T13:33:25.954Z,6.80
2018-02-05T13:35:53.483Z,6.23
2018-02-05T13:38:22.270Z,6.47
2018-02-05T13:40:49.801Z,6.28
2018-02-05T13:43:17.365Z,6.32
2018-02-05T13:45:44.929Z,6.50
2018-02-05T13:48:12.438Z,6.12
2018-02-05T13:50:41.297Z,5.77
2018-02-05T13:53:10.454Z,5.65
2018-02-05T13:55:37.961Z,5.93
2018-02-05T13:58:05.460Z,5.40
2018-02-05T14:00:32.997Z,4.80
2018-02-05T14:03:00.533Z,5.53
2018-02-05T14:08:17.812Z,4.50
2018-02-05T14:10:50.696Z,4.60
2018-02-05T14:13:25.429Z,4.37
2018-02-05T14:15:52.981Z,4.30
2018-02-05T14:18:20.511Z,4.75
2018-02-05T14:20:48.829Z,4.72
2018-02-05T14:23:16.382Z,4.10
2018-02-05T14:25:43.898Z,5.40
2018-02-05T14:28:11.415Z,4.23
2018-02-05T14:30:39.002Z,3.83
2018-02-05T14:33:06.557Z,5.07
2018-02-05T14:35:34.065Z,4.90
2018-02-05T14:38:02.382Z,3.90
2018-02-05T14:40:29.897Z,4.40
2018-02-05T14:42:58.168Z,4.37
2018-02-05T14:45:26.475Z,3.83
2018-02-05T14:47:54.002Z,4.20
2018-02-05T14:50:22.297Z,4.37
2018-02-05T14:52:49.837Z,3.63
2018-02-05T14:55:18.132Z,3.87
2018-02-05T14:57:45.646Z,3.55
2018-02-05T15:00:13.249Z,4.70
2018-02-05T15:02:40.757Z,3.33
2018-02-05T15:05:08.278Z,3.90
2018-02-05T15:07:35.847Z,3.10
2018-02-05T15:10:03.361Z,3.60
2018-02-05T15:12:31.659Z,3.50
2018-02-05T15:15:00.049Z,3.30
2018-02-05T15:17:27.569Z,3.77
2018-02-05T15:19:55.875Z,3.67
2018-02-05T15:22:23.434Z,4.10
2018-02-05T15:24:51.781Z,3.67
2018-02-05T15:27:19.328Z,4.60
2018-02-05T15:29:46.941Z,3.10
2018-02-05T15:32:14.470Z,3.67
2018-02-05T15:34:42.084Z,3.80
2018-02-05T15:37:09.641Z,3.50
2018-02-05T15:39:37.169Z,3.20
2018-02-05T15:42:05.441Z,4.33
2018-02-05T15:44:33.798Z,3.50
2018-02-05T15:47:01.346Z,3.20
2018-02-05T15:49:28.841Z,3.83
2018-02-05T15:51:57.255Z,3.17
2018-02-05T15:54:25.633Z,3.10
2018-02-05T15:56:53.150Z,3.17
2018-02-05T15:59:21.597Z,2.95
2018-02-05T16:01:49.143Z,3.00
2018-02-05T16:04:16.676Z,3.67
2018-02-05T16:06:44.767Z,3.37
2018-02-05T16:09:12.278Z,3.00
2018-02-05T16:11:39.842Z,2.60
2018-02-05T16:14:08.229Z,3.00
2018-02-05T16:16:36.519Z,3.07
2018-02-05T16:19:04.105Z,3.65
2018-02-05T16:21:31.678Z,3.00
2018-02-05T16:23:59.219Z,2.90
2018-02-05T16:26:26.741Z,3.00
2018-02-05T16:28:55.061Z,2.77
2018-02-05T16:31:22.557Z,2.70
2018-02-05T16:33:50.076Z,2.72
2018-02-05T16:36:17.622Z,2.70
2018-02-05T16:38:45.168Z,2.70
2018-02-05T16:41:13.470Z,2.93
2018-02-05T16:43:41.022Z,3.07
2018-02-05T16:46:08.560Z,2.93
2018-02-05T16:48:36.152Z,2.87
2018-02-05T16:51:03.729Z,2.53
2018-02-05T16:53:31.286Z,3.00
2018-02-05T16:55:58.801Z,2.53
2018-02-05T16:58:26.394Z,2.70
2018-02-05T17:00:53.917Z,2.50
2018-02-05T17:03:22.282Z,2.87
2018-02-05T17:05:49.858Z,2.70
2018-02-05T17:08:18.134Z,2.60
2018-02-05T17:10:46.408Z,2.60
2018-02-05T17:13:14.724Z,2.70
2018-02-05T17:15:42.242Z,2.80
2018-02-05T17:18:11.125Z,2.70
2018-02-05T17:20:38.669Z,2.43
2018-02-05T17:23:06.205Z,2.53
2018-02-05T17:25:33.818Z,2.50
2018-02-05T17:28:02.124Z,2.20
2018-02-05T17:30:30.057Z,2.35
2018-02-05T17:32:58.932Z,2.70
2018-02-05T17:35:26.905Z,2.30
2018-02-05T17:37:54.429Z,2.60
2018-02-05T17:40:21.961Z,3.10
2018-02-05T17:42:49.525Z,2.10
2018-02-05T17:45:17.060Z,2.53
2018-02-05T17:47:45.333Z,2.40
2018-02-05T17:50:13.646Z,2.50
2018-02-05T17:52:41.177Z,2.05
2018-02-05T17:55:09.450Z,2.47
2018-02-05T17:57:37.784Z,2.30
2018-02-05T18:00:05.314Z,2.60
2018-02-05T18:02:32.837Z,1.90
2018-02-05T18:05:01.145Z,2.37
2018-02-05T18:07:28.638Z,2.60
2018-02-05T18:09:56.153Z,2.13
2018-02-05T18:12:23.697Z,2.37
2018-02-05T18:14:52.011Z,3.40
2018-02-05T18:17:19.562Z,2.30
2018-02-05T18:19:47.115Z,2.20
2018-02-05T18:22:14.645Z,2.10
2018-02-05T18:24:42.959Z,2.13
2018-02-05T18:27:10.529Z,2.20
2018-02-05T18:29:38.033Z,2.40
2018-02-05T18:32:05.594Z,2.17
2018-02-05T18:34:33.216Z,2.50
2018-02-05T18:37:01.080Z,2.60
2018-02-05T18:39:29.001Z,2.33
2018-02-05T18:41:56.614Z,2.20
2018-02-05T18:44:24.166Z,2.10
2018-02-05T18:46:51.703Z,2.00
2018-02-05T18:49:20.025Z,2.57
2018-02-05T18:51:47.668Z,2.53
2018-02-05T18:54:15.205Z,2.10
2018-02-05T18:56:44.434Z,2.13
2018-02-05T18:59:11.925Z,2.00
2018-02-05T19:01:39.437Z,2.40
2018-02-05T19:04:07.021Z,2.50
2018-02-05T19:06:34.522Z,2.30
2018-02-05T19:09:02.854Z,2.23
2018-02-05T19:11:30.430Z,2.17
2018-02-05T19:13:57.941Z,2.20
2018-02-05T19:16:26.294Z,2.20
2018-02-05T19:18:55.033Z,2.10
2018-02-05T19:21:22.558Z,2.42
2018-02-05T19:23:51.259Z,2.30
2018-02-05T19:26:18.915Z,2.53
2018-02-05T19:28:46.447Z,2.77
2018-02-05T19:31:13.945Z,2.50
2018-02-05T19:33:41.513Z,2.30
2018-02-05T19:36:09.052Z,2.00
2018-02-05T19:38:36.568Z,2.07
2018-02-05T19:43:49.357Z,2.13
2018-02-05T19:46:17.898Z,2.20
2018-02-05T19:48:45.418Z,2.33
2018-02-05T19:51:12.934Z,2.50
2018-02-05T19:53:41.239Z,2.30
2018-02-05T19:56:08.749Z,2.50
2018-02-05T19:58:36.249Z,2.40
2018-02-05T20:01:04.176Z,2.40
2018-02-05T20:03:31.737Z,2.90
2018-02-05T20:06:00.875Z,2.27
2018-02-05T20:08:29.514Z,2.07
2018-02-05T20:10:57.077Z,2.43
2018-02-05T20:13:24.556Z,2.20
2018-02-05T20:15:52.086Z,2.27
2018-02-05T20:18:19.626Z,2.50
2018-02-05T20:20:47.238Z,2.00
2018-02-05T20:23:15.959Z,2.07
2018-02-05T20:25:43.798Z,2.30
2018-02-05T20:28:12.123Z,2.40
2018-02-05T20:30:40.963Z,2.85
2018-02-05T20:33:10.527Z,2.30
2018-02-05T20:35:38.755Z,2.67
2018-02-05T20:38:08.291Z,1.83
2018-02-05T20:40:36.103Z,2.40
2018-02-05T20:43:04.442Z,2.10
2018-02-05T20:45:33.529Z,2.27
2018-02-05T20:48:01.225Z,2.07
2018-02-05T20:50:28.767Z,2.70
2018-02-05T20:52:56.718Z,2.23
2018-02-05T20:55:24.296Z,2.67
2018-02-05T20:57:51.849Z,2.10
2018-02-05T21:00:19.578Z,2.40
2018-02-05T21:02:48.904Z,1.90
2018-02-05T21:05:17.623Z,2.20
2018-02-05T21:07:45.968Z,2.27
2018-02-05T21:10:14.082Z,2.40
2018-02-05T21:12:42.502Z,2.67
2018-02-05T21:15:10.627Z,2.27
2018-02-05T21:17:38.727Z,2.37
2018-02-05T21:20:07.014Z,2.17
2018-02-05T21:22:35.337Z,2.50
2018-02-05T21:25:02.876Z,2.37
2018-02-05T21:27:30.433Z,2.70
2018-02-05T21:29:57.989Z,2.40
2018-02-05T21:32:25.522Z,2.40
2018-02-05T21:34:53.861Z,2.10
2018-02-05T21:37:21.405Z,2.27
2018-02-05T21:39:48.932Z,2.07
2018-02-05T21:42:16.445Z,2.30
2018-02-05T21:44:44.000Z,2.50
2018-02-05T21:47:11.509Z,2.77
2018-02-05T21:49:40.223Z,2.40
2018-02-05T21:52:07.784Z,2.07
2018-02-05T21:54:35.310Z,2.07
2018-02-05T21:57:03.585Z,2.80
2018-02-05T21:59:31.886Z,2.50
2018-02-05T22:01:59.413Z,2.87
2018-02-05T22:04:27.713Z,2.53
2018-02-05T22:06:55.252Z,2.30
2018-02-05T22:09:23.538Z,2.10
2018-02-05T22:11:51.835Z,2.53
2018-02-05T22:14:19.508Z,2.23
2018-02-05T22:16:47.437Z,2.40
2018-02-05T22:19:15.728Z,2.70
2018-02-05T22:21:43.278Z,2.63
2018-02-05T22:24:11.590Z,2.80
2018-02-05T22:26:39.255Z,2.70
2018-02-05T22:29:06.879Z,2.50
2018-02-05T22:31:34.394Z,2.80
2018-02-05T22:34:01.932Z,2.47
2018-02-05T22:36:29.530Z,2.37
2018-02-05T22:38:57.121Z,2.47
2018-02-05T22:41:25.423Z,2.90
2018-02-05T22:43:52.991Z,2.53
2018-02-05T22:46:20.495Z,2.97
2018-02-05T22:48:48.029Z,2.70
2018-02-05T22:51:15.599Z,2.30
2018-02-05T22:53:43.118Z,2.50
2018-02-05T22:56:10.653Z,2.40
2018-02-05T22:58:38.990Z,2.43
2018-02-05T23:01:07.377Z,2.60
2018-02-05T23:03:34.881Z,2.30
2018-02-05T23:06:03.217Z,2.60
2018-02-05T23:08:30.721Z,2.40
2018-02-05T23:10:58.338Z,2.80
2018-02-05T23:13:25.869Z,2.70
2018-02-05T23:15:53.787Z,2.45
2018-02-05T23:18:22.057Z,2.70
2018-02-05T23:20:49.606Z,2.57
2018-02-05T23:23:17.127Z,2.67
2018-02-05T23:25:44.639Z,2.77
2018-02-05T23:28:12.956Z,2.53
2018-02-05T23:30:40.478Z,2.77
2018-02-05T23:33:08.750Z,2.80
2018-02-05T23:35:36.293Z,2.77
2018-02-05T23:38:03.817Z,2.77
2018-02-05T23:40:31.349Z,2.90
2018-02-05T23:42:58.913Z,2.60
2018-02-05T23:45:27.185Z,2.50
2018-02-05T23:47:55.482Z,2.83
2018-02-05T23:50:23.041Z,2.60
2018-02-05T23:52:50.573Z,2.87
2018-02-05T23:55:18.869Z,2.33
2018-02-05T23:57:46.409Z,2.90
